createdAt,value
2022-12-23T00:00:54.385Z,-3.24
2022-12-23T00:03:23.563Z,-3.26
2022-12-23T00:05:52.719Z,-3.26
2022-12-23T00:08:24.144Z,-3.27
2022-12-23T00:10:55.723Z,-3.28
2022-12-23T00:13:42.842Z,-3.29
2022-12-23T00:16:14.609Z,-3.30
2022-12-23T00:18:43.606Z,-3.31
2022-12-23T00:21:15.108Z,-3.35
2022-12-23T00:23:59.228Z,-3.36
2022-12-23T00:26:29.931Z,-3.35
2022-12-23T00:28:59.550Z,-3.34
2022-12-23T00:31:31.350Z,-3.32
2022-12-23T00:34:00.117Z,-3.31
2022-12-23T00:36:30.669Z,-3.30
2022-12-23T00:39:18.577Z,-3.29
2022-12-23T00:42:05.715Z,-3.26
2022-12-23T00:44:34.226Z,-3.25
2022-12-23T00:47:05.122Z,-3.24
2022-12-23T00:49:45.501Z,-3.24
2022-12-23T00:52:16.633Z,-3.24
2022-12-23T00:54:45.226Z,-3.24
2022-12-23T00:57:16.668Z,-3.25
2022-12-23T00:59:45.404Z,-3.24
2022-12-23T01:02:32.579Z,-3.25
2022-12-23T01:05:19.136Z,-3.25
2022-12-23T01:07:47.471Z,-3.24
2022-12-23T01:10:18.908Z,-3.22
2022-12-23T01:12:58.719Z,-3.22
2022-12-23T01:15:27.237Z,-3.21
2022-12-23T01:17:55.686Z,-3.19
2022-12-23T01:20:27.391Z,-3.18
2022-12-23T01:22:56.369Z,-3.21
2022-12-23T01:25:25.015Z,-3.21
2022-12-23T01:27:53.968Z,-3.20
2022-12-23T01:30:22.823Z,-3.19
2022-12-23T01:32:50.974Z,-3.17
2022-12-23T01:35:21.166Z,-3.14
2022-12-23T01:37:49.543Z,-3.10
2022-12-23T01:40:18.317Z,-3.08
2022-12-23T01:42:50.009Z,-3.05
2022-12-23T01:45:41.479Z,-3.03
2022-12-23T01:48:29.816Z,-3.02
2022-12-23T01:51:07.387Z,-3.00
2022-12-23T01:53:50.303Z,-3.00
2022-12-23T01:56:35.741Z,-2.99
2022-12-23T01:59:33.821Z,-3.00
2022-12-23T02:02:21.350Z,-2.98
2022-12-23T02:04:54.572Z,-2.98
2022-12-23T02:07:41.772Z,-2.98
2022-12-23T02:10:10.965Z,-2.97
2022-12-23T02:12:54.824Z,-2.97
2022-12-23T02:16:06.303Z,-2.97
2022-12-23T02:18:58.732Z,-2.99
2022-12-23T02:21:53.098Z,-3.00
2022-12-23T02:24:43.342Z,-3.00
2022-12-23T02:27:30.545Z,-2.98
2022-12-23T02:30:23.397Z,-2.99
2022-12-23T02:33:02.868Z,-2.98
2022-12-23T02:36:04.126Z,-3.00
2022-12-23T02:38:55.370Z,-3.01
2022-12-23T02:41:39.932Z,-3.02
2022-12-23T02:44:41.570Z,-3.02
2022-12-23T02:47:37.377Z,-3.01
2022-12-23T02:50:20.891Z,-2.99
2022-12-23T02:52:53.135Z,-3.00
2022-12-23T02:55:28.012Z,-3.00
2022-12-23T02:57:59.265Z,-3.00
2022-12-23T03:00:27.879Z,-3.01
2022-12-23T03:02:58.489Z,-3.00
2022-12-23T03:05:48.800Z,-2.99
2022-12-23T03:08:32.526Z,-2.95
2022-12-23T03:11:08.574Z,-2.93
2022-12-23T03:14:01.217Z,-2.92
2022-12-23T03:16:55.711Z,-2.91
2022-12-23T03:19:30.071Z,-2.90
2022-12-23T03:22:10.815Z,-2.91
2022-12-23T03:24:45.181Z,-2.91
2022-12-23T03:27:31.256Z,-2.91
2022-12-23T03:30:03.892Z,-2.88
2022-12-23T03:32:52.426Z,-2.88
2022-12-23T03:35:29.144Z,-2.87
2022-12-23T03:38:04.292Z,-2.87
2022-12-23T03:41:06.261Z,-2.87
2022-12-23T03:43:51.181Z,-2.88
2022-12-23T03:46:32.772Z,-2.90
2022-12-23T03:49:08.345Z,-2.91
2022-12-23T03:52:06.407Z,-2.91
2022-12-23T03:54:44.116Z,-2.91
2022-12-23T03:57:16.245Z,-2.89
2022-12-23T03:59:47.027Z,-2.88
2022-12-23T04:02:55.996Z,-2.86
2022-12-23T04:05:44.214Z,-2.83
2022-12-23T04:08:27.837Z,-2.81
2022-12-23T04:10:56.374Z,-2.78
2022-12-23T04:13:25.021Z,-2.75
2022-12-23T04:15:58.260Z,-2.73
2022-12-23T04:18:27.016Z,-2.73
2022-12-23T04:20:58.155Z,-2.73
2022-12-23T04:23:27.981Z,-2.72
2022-12-23T04:25:56.292Z,-2.73
2022-12-23T04:28:24.997Z,-2.73
2022-12-23T04:30:53.941Z,-2.73
2022-12-23T04:33:22.635Z,-2.75
2022-12-23T04:35:51.411Z,-2.78
2022-12-23T04:38:19.521Z,-2.80
2022-12-23T04:40:48.617Z,-2.80
2022-12-23T04:43:17.363Z,-2.80
2022-12-23T04:45:46.193Z,-2.81
2022-12-23T04:48:14.773Z,-2.82
2022-12-23T04:50:43.668Z,-2.85
2022-12-23T04:53:12.372Z,-2.86
2022-12-23T04:55:40.844Z,-2.90
2022-12-23T04:58:11.942Z,-2.93
2022-12-23T05:00:42.922Z,-2.95
2022-12-23T05:03:11.535Z,-2.97
2022-12-23T05:05:48.711Z,-2.98
2022-12-23T05:08:18.480Z,-3.01
2022-12-23T05:10:46.999Z,-3.04
2022-12-23T05:13:18.820Z,-3.06
2022-12-23T05:15:51.479Z,-3.06
2022-12-23T05:18:20.332Z,-3.07
2022-12-23T05:20:52.808Z,-3.07
2022-12-23T05:23:21.464Z,-3.09
2022-12-23T05:25:55.614Z,-3.13
2022-12-23T05:28:24.451Z,-3.14
2022-12-23T05:31:13.635Z,-3.14
2022-12-23T05:33:45.283Z,-3.16
2022-12-23T05:36:14.388Z,-3.17
2022-12-23T05:38:42.772Z,-3.17
2022-12-23T05:41:13.642Z,-3.16
2022-12-23T05:43:46.222Z,-3.17
2022-12-23T05:46:14.846Z,-3.20
2022-12-23T05:48:43.604Z,-3.22
2022-12-23T05:51:12.251Z,-3.22
2022-12-23T05:53:40.740Z,-3.25
2022-12-23T05:56:12.432Z,-3.27
2022-12-23T05:58:44.306Z,-3.30
2022-12-23T06:01:12.895Z,-3.30
2022-12-23T06:03:41.703Z,-3.30
2022-12-23T06:06:10.506Z,-3.31
2022-12-23T06:08:39.131Z,-3.32
2022-12-23T06:11:07.978Z,-3.32
2022-12-23T06:13:39.311Z,-3.32
2022-12-23T06:16:08.211Z,-3.31
2022-12-23T06:18:36.429Z,-3.29
2022-12-23T06:21:05.614Z,-3.26
2022-12-23T06:23:34.344Z,-3.22
2022-12-23T06:26:03.592Z,-3.19
2022-12-23T06:28:32.195Z,-3.17
2022-12-23T06:31:00.371Z,-3.15
2022-12-23T06:33:29.816Z,-3.12
2022-12-23T06:35:58.685Z,-3.10
2022-12-23T06:38:27.149Z,-3.06
2022-12-23T06:40:58.467Z,-3.04
2022-12-23T06:43:26.903Z,-3.02
2022-12-23T06:45:55.377Z,-2.99
2022-12-23T06:48:24.030Z,-2.98
2022-12-23T06:50:52.537Z,-2.95
2022-12-23T06:53:21.346Z,-2.94
2022-12-23T06:55:50.010Z,-2.92
2022-12-23T06:58:18.828Z,-2.89
2022-12-23T07:00:50.111Z,-2.88
2022-12-23T07:03:28.935Z,-2.86
2022-12-23T07:05:57.673Z,-2.85
2022-12-23T07:08:29.277Z,-2.85
2022-12-23T07:11:02.770Z,-2.87
2022-12-23T07:13:32.056Z,-2.86
2022-12-23T07:16:00.814Z,-2.87
2022-12-23T07:18:29.455Z,-2.88
2022-12-23T07:21:04.896Z,-2.89
2022-12-23T07:23:34.092Z,-2.92
2022-12-23T07:26:05.313Z,-2.93
2022-12-23T07:28:34.241Z,-2.95
2022-12-23T07:31:03.459Z,-2.95
2022-12-23T07:33:32.234Z,-2.95
2022-12-23T07:36:02.634Z,-2.96
2022-12-23T07:38:34.091Z,-2.95
2022-12-23T07:41:05.695Z,-2.94
2022-12-23T07:43:34.089Z,-2.91
2022-12-23T07:46:10.624Z,-2.89
2022-12-23T07:48:40.533Z,-2.85
2022-12-23T07:51:08.925Z,-2.79
2022-12-23T07:53:37.476Z,-2.76
2022-12-23T07:56:06.328Z,-2.73
2022-12-23T07:58:35.153Z,-2.70
2022-12-23T08:01:08.613Z,-2.68
2022-12-23T08:03:37.841Z,-2.66
2022-12-23T08:06:13.531Z,-2.65
2022-12-23T08:08:45.126Z,-2.63
2022-12-23T08:11:22.577Z,-2.62
2022-12-23T08:13:51.264Z,-2.62
2022-12-23T08:16:20.189Z,-2.62
2022-12-23T08:18:51.410Z,-2.63
2022-12-23T08:21:22.604Z,-2.65
2022-12-23T08:23:52.383Z,-2.65
2022-12-23T08:26:23.251Z,-2.65
2022-12-23T08:28:58.354Z,-2.65
2022-12-23T08:31:32.977Z,-2.66
2022-12-23T08:34:02.598Z,-2.66
2022-12-23T08:36:37.897Z,-2.66
2022-12-23T08:39:12.535Z,-2.67
2022-12-23T08:41:44.981Z,-2.66
2022-12-23T08:44:13.974Z,-2.65
2022-12-23T08:46:43.278Z,-2.65
2022-12-23T08:49:11.904Z,-2.62
2022-12-23T08:51:40.546Z,-2.62
2022-12-23T08:54:08.766Z,-2.59
2022-12-23T08:56:42.355Z,-2.56
2022-12-23T08:59:23.896Z,-2.53
2022-12-23T09:01:53.007Z,-2.49
2022-12-23T09:04:23.935Z,-2.45
2022-12-23T09:06:52.454Z,-2.44
2022-12-23T09:09:21.559Z,-2.43
2022-12-23T09:11:49.922Z,-2.45
2022-12-23T09:14:18.599Z,-2.47
2022-12-23T09:16:47.126Z,-2.49
2022-12-23T09:19:15.936Z,-2.49
2022-12-23T09:21:44.348Z,-2.51
2022-12-23T09:24:15.190Z,-2.52
2022-12-23T09:26:43.799Z,-2.53
2022-12-23T09:29:12.488Z,-2.53
2022-12-23T09:31:43.374Z,-2.54
2022-12-23T09:34:12.195Z,-2.55
2022-12-23T09:36:47.101Z,-2.55
2022-12-23T09:39:19.093Z,-2.53
2022-12-23T09:42:04.926Z,-2.50
2022-12-23T09:44:55.427Z,-2.49
2022-12-23T09:47:27.299Z,-2.47
2022-12-23T09:50:07.863Z,-2.45
2022-12-23T09:53:01.421Z,-2.43
2022-12-23T09:55:52.722Z,-2.42
2022-12-23T09:58:44.393Z,-2.41
2022-12-23T10:01:20.416Z,-2.41
2022-12-23T10:04:01.178Z,-2.41
2022-12-23T10:06:31.648Z,-2.40
2022-12-23T10:09:04.266Z,-2.40
2022-12-23T10:11:41.261Z,-2.37
2022-12-23T10:14:24.904Z,-2.35
2022-12-23T10:17:08.080Z,-2.30
2022-12-23T10:19:44.258Z,-2.27
2022-12-23T10:22:27.551Z,-2.23
2022-12-23T10:25:01.354Z,-2.19
2022-12-23T10:27:42.031Z,-2.17
2022-12-23T10:33:17.767Z,-2.13
2022-12-23T10:36:17.991Z,-2.14
2022-12-23T10:39:04.475Z,-2.14
2022-12-23T10:41:35.955Z,-2.14
2022-12-23T10:44:08.066Z,-2.15
2022-12-23T10:46:57.035Z,-2.15
2022-12-23T10:50:10.662Z,-2.15
2022-12-23T10:52:46.742Z,-2.14
2022-12-23T10:55:33.773Z,-2.13
2022-12-23T10:58:16.440Z,-2.12
2022-12-23T11:00:50.795Z,-2.12
2022-12-23T11:03:37.011Z,-2.10
2022-12-23T11:06:09.282Z,-2.10
2022-12-23T11:08:40.120Z,-2.09
2022-12-23T11:11:09.246Z,-2.08
2022-12-23T11:13:46.724Z,-2.07
2022-12-23T11:16:30.066Z,-2.07
2022-12-23T11:19:16.164Z,-2.06
2022-12-23T11:21:56.755Z,-2.05
2022-12-23T11:24:27.243Z,-2.05
2022-12-23T11:27:08.044Z,-2.04
2022-12-23T11:29:40.000Z,-2.02
2022-12-23T11:32:25.327Z,-2.00
2022-12-23T11:34:55.687Z,-1.99
2022-12-23T11:37:39.127Z,-1.96
2022-12-23T11:40:16.139Z,-1.92
2022-12-23T11:42:51.798Z,-1.89
2022-12-23T11:45:28.105Z,-1.86
2022-12-23T11:47:57.169Z,-1.82
2022-12-23T11:50:44.571Z,-1.80
2022-12-23T11:53:24.834Z,-1.78
2022-12-23T11:56:07.167Z,-1.77
2022-12-23T11:58:53.801Z,-1.77
2022-12-23T12:01:27.739Z,-1.77
2022-12-23T12:04:06.711Z,-1.75
2022-12-23T12:06:39.134Z,-1.72
2022-12-23T12:09:07.772Z,-1.70
2022-12-23T12:12:06.950Z,-1.67
2022-12-23T12:14:46.341Z,-1.63
2022-12-23T12:18:05.223Z,-1.61
2022-12-23T12:20:37.631Z,-1.59
2022-12-23T12:23:31.024Z,-1.57
2022-12-23T12:26:07.548Z,-1.54
2022-12-23T12:28:46.232Z,-1.50
2022-12-23T12:31:35.517Z,-1.48
2022-12-23T12:34:25.567Z,-1.47
2022-12-23T12:37:02.362Z,-1.45
2022-12-23T12:39:44.229Z,-1.44
2022-12-23T12:42:19.204Z,-1.40
2022-12-23T12:45:06.674Z,-1.37
2022-12-23T12:48:18.601Z,-1.36
2022-12-23T12:51:19.958Z,-1.34
2022-12-23T12:54:16.033Z,-1.29
2022-12-23T12:56:56.886Z,-1.24
2022-12-23T12:59:34.707Z,-1.18
2022-12-23T13:02:29.903Z,-1.12
2022-12-23T13:05:10.575Z,-1.07
2022-12-23T13:07:54.424Z,-1.02
2022-12-23T13:10:44.853Z,-0.96
2022-12-23T13:13:33.926Z,-0.92
2022-12-23T13:16:24.242Z,-0.88
2022-12-23T13:19:11.450Z,-0.85
2022-12-23T13:21:48.748Z,-0.84
2022-12-23T13:24:38.918Z,-0.83
2022-12-23T13:27:21.091Z,-0.82
2022-12-23T13:30:16.027Z,-0.80
2022-12-23T13:33:28.366Z,-0.79
2022-12-23T13:36:18.284Z,-0.77
2022-12-23T13:39:05.896Z,-0.76
2022-12-23T13:41:41.497Z,-0.77
2022-12-23T13:44:16.396Z,-0.79
2022-12-23T13:46:49.023Z,-0.80
2022-12-23T13:49:58.710Z,-0.81
2022-12-23T13:52:39.278Z,-0.81
2022-12-23T13:55:40.320Z,-0.82
2022-12-23T13:58:19.531Z,-0.81
2022-12-23T14:00:57.623Z,-0.81
2022-12-23T14:03:39.260Z,-0.81
2022-12-23T14:06:22.118Z,-0.81
2022-12-23T14:08:52.158Z,-0.82
2022-12-23T14:11:28.300Z,-0.81
2022-12-23T14:14:06.120Z,-0.80
2022-12-23T14:16:37.701Z,-0.78
2022-12-23T14:19:41.506Z,-0.76
2022-12-23T14:22:34.321Z,-0.75
2022-12-23T14:25:30.614Z,-0.72
2022-12-23T14:28:28.167Z,-0.70
2022-12-23T14:30:59.936Z,-0.69
2022-12-23T14:33:38.730Z,-0.67
2022-12-23T14:36:27.135Z,-0.65
2022-12-23T14:39:33.255Z,-0.64
2022-12-23T14:42:05.955Z,-0.62
2022-12-23T14:44:38.610Z,-0.60
2022-12-23T14:47:32.963Z,-0.57
2022-12-23T14:50:37.023Z,-0.53
2022-12-23T14:53:22.812Z,-0.50
2022-12-23T14:55:53.757Z,-0.47
2022-12-23T14:58:34.648Z,-0.47
2022-12-23T15:01:18.995Z,-0.47
2022-12-23T15:04:01.659Z,-0.45
2022-12-23T15:06:39.523Z,-0.44
2022-12-23T15:09:10.699Z,-0.42
2022-12-23T15:11:42.085Z,-0.41
2022-12-23T15:14:23.268Z,-0.41
2022-12-23T15:16:54.676Z,-0.41
2022-12-23T15:19:26.815Z,-0.40
2022-12-23T15:22:23.615Z,-0.40
2022-12-23T15:24:52.431Z,-0.42
2022-12-23T15:27:28.012Z,-0.43
2022-12-23T15:29:59.822Z,-0.43
2022-12-23T15:32:30.368Z,-0.43
2022-12-23T15:35:05.296Z,-0.41
2022-12-23T15:37:40.465Z,-0.39
2022-12-23T15:40:27.315Z,-0.38
2022-12-23T15:42:56.144Z,-0.39
2022-12-23T15:45:27.232Z,-0.39
2022-12-23T15:47:55.618Z,-0.39
2022-12-23T15:50:24.392Z,-0.38
2022-12-23T15:53:00.341Z,-0.39
2022-12-23T15:55:34.345Z,-0.40
2022-12-23T15:58:04.969Z,-0.41
2022-12-23T16:00:54.731Z,-0.42
2022-12-23T16:03:43.918Z,-0.43
2022-12-23T16:06:23.487Z,-0.44
2022-12-23T16:09:00.991Z,-0.45
2022-12-23T16:11:56.105Z,-0.45
2022-12-23T16:14:43.992Z,-0.43
2022-12-23T16:17:18.333Z,-0.43
2022-12-23T16:19:55.761Z,-0.43
2022-12-23T16:22:40.611Z,-0.42
2022-12-23T16:28:27.167Z,-0.39
2022-12-23T16:30:58.581Z,-0.36
2022-12-23T16:33:50.786Z,-0.35
2022-12-23T16:36:22.955Z,-0.33
2022-12-23T16:38:59.353Z,-0.31
2022-12-23T16:41:27.971Z,-0.30
2022-12-23T16:44:02.383Z,-0.29
2022-12-23T16:46:44.519Z,-0.29
2022-12-23T16:49:20.038Z,-0.30
2022-12-23T16:51:49.077Z,-0.32
2022-12-23T16:54:21.787Z,-0.33
2022-12-23T16:56:51.077Z,-0.35
2022-12-23T16:59:20.657Z,-0.35
2022-12-23T17:01:50.352Z,-0.35
2022-12-23T17:04:19.107Z,-0.35
2022-12-23T17:06:47.523Z,-0.35
2022-12-23T17:09:15.986Z,-0.35
2022-12-23T17:11:51.911Z,-0.38
2022-12-23T17:14:24.636Z,-0.36
2022-12-23T17:16:53.718Z,-0.35
2022-12-23T17:19:28.896Z,-0.34
2022-12-23T17:22:03.826Z,-0.35
2022-12-23T17:24:32.868Z,-0.36
2022-12-23T17:27:01.544Z,-0.38
2022-12-23T17:29:30.287Z,-0.38
2022-12-23T17:31:58.901Z,-0.39
2022-12-23T17:34:30.424Z,-0.37
2022-12-23T17:37:03.131Z,-0.38
2022-12-23T17:39:31.606Z,-0.41
2022-12-23T17:42:01.543Z,-0.40
2022-12-23T17:44:32.712Z,-0.39
2022-12-23T17:47:02.121Z,-0.38
2022-12-23T17:49:30.687Z,-0.37
2022-12-23T17:52:01.565Z,-0.36
2022-12-23T17:54:34.758Z,-0.34
2022-12-23T17:57:11.039Z,-0.32
2022-12-23T17:59:39.469Z,-0.29
2022-12-23T18:02:22.563Z,-0.26
2022-12-23T18:04:55.614Z,-0.25
2022-12-23T18:07:27.059Z,-0.23
2022-12-23T18:09:55.993Z,-0.22
2022-12-23T18:12:40.391Z,-0.20
2022-12-23T18:15:33.514Z,-0.19
2022-12-23T18:18:02.145Z,-0.19
2022-12-23T18:20:30.628Z,-0.21
2022-12-23T18:23:00.708Z,-0.20
2022-12-23T18:25:32.528Z,-0.18
2022-12-23T18:28:01.044Z,-0.15
2022-12-23T18:30:29.405Z,-0.14
2022-12-23T18:32:59.897Z,-0.12
2022-12-23T18:35:35.402Z,-0.11
2022-12-23T18:38:06.505Z,-0.09
2022-12-23T18:40:37.654Z,-0.05
2022-12-23T18:43:06.901Z,-0.03
2022-12-23T18:45:50.656Z,-0.02
2022-12-23T18:48:20.841Z,0.02
2022-12-23T18:50:49.449Z,0.06
2022-12-23T18:53:25.461Z,0.10
2022-12-23T18:55:54.918Z,0.15
2022-12-23T18:58:24.456Z,0.20
2022-12-23T19:00:54.113Z,0.25
2022-12-23T19:03:28.380Z,0.29
2022-12-23T19:05:58.402Z,0.31
2022-12-23T19:08:28.116Z,0.33
2022-12-23T19:10:56.728Z,0.34
2022-12-23T19:13:25.943Z,0.36
2022-12-23T19:15:57.545Z,0.37
2022-12-23T19:18:25.945Z,0.38
2022-12-23T19:20:54.658Z,0.40
2022-12-23T19:23:23.323Z,0.42
2022-12-23T19:25:55.778Z,0.44
2022-12-23T19:28:25.087Z,0.45
2022-12-23T19:30:56.403Z,0.47
2022-12-23T19:33:25.265Z,0.49
2022-12-23T19:35:54.109Z,0.50
2022-12-23T19:38:24.472Z,0.51
2022-12-23T19:41:00.866Z,0.53
2022-12-23T19:43:32.021Z,0.55
2022-12-23T19:46:10.358Z,0.57
2022-12-23T19:48:39.718Z,0.60
2022-12-23T19:51:14.190Z,0.63
2022-12-23T19:53:45.586Z,0.65
2022-12-23T19:56:16.923Z,0.66
2022-12-23T19:58:45.812Z,0.67
2022-12-23T20:01:16.690Z,0.68
2022-12-23T20:03:46.800Z,0.68
2022-12-23T20:06:22.609Z,0.69
2022-12-23T20:08:55.035Z,0.70
2022-12-23T20:11:27.188Z,0.70
2022-12-23T20:13:56.723Z,0.72
2022-12-23T20:16:25.644Z,0.74
2022-12-23T20:18:54.660Z,0.77
2022-12-23T20:21:23.764Z,0.79
2022-12-23T20:23:56.923Z,0.81
2022-12-23T20:26:25.402Z,0.82
2022-12-23T20:28:53.742Z,0.84
2022-12-23T20:31:27.258Z,0.88
2022-12-23T20:33:58.459Z,0.89
2022-12-23T20:36:32.891Z,0.91
2022-12-23T20:39:04.204Z,0.94
2022-12-23T20:41:33.378Z,0.98
2022-12-23T20:46:51.385Z,1.03
2022-12-23T20:49:19.818Z,1.07
2022-12-23T20:51:51.353Z,1.09
2022-12-23T20:54:21.952Z,1.13
2022-12-23T20:56:53.374Z,1.16
2022-12-23T20:59:22.212Z,1.19
2022-12-23T21:02:17.633Z,1.23
2022-12-23T21:04:46.330Z,1.27
2022-12-23T21:07:14.848Z,1.32
2022-12-23T21:09:45.219Z,1.36
2022-12-23T21:12:17.287Z,1.39
2022-12-23T21:14:45.909Z,1.41
2022-12-23T21:17:17.019Z,1.42
2022-12-23T21:19:45.542Z,1.44
2022-12-23T21:22:17.210Z,1.49
2022-12-23T21:24:45.799Z,1.52
2022-12-23T21:27:14.269Z,1.55
2022-12-23T21:29:46.529Z,1.57
2022-12-23T21:32:15.260Z,1.59
2022-12-23T21:34:43.695Z,1.63
2022-12-23T21:37:15.142Z,1.67
2022-12-23T21:39:46.573Z,1.68
2022-12-23T21:42:15.341Z,1.71
2022-12-23T21:44:44.003Z,1.74
2022-12-23T21:47:13.078Z,1.78
2022-12-23T21:49:43.342Z,1.82
2022-12-23T21:52:11.916Z,1.85
2022-12-23T21:54:53.932Z,1.86
2022-12-23T21:57:24.716Z,1.88
2022-12-23T21:59:54.045Z,1.90
2022-12-23T22:02:22.788Z,1.95
2022-12-23T22:04:57.146Z,1.97
2022-12-23T22:07:26.064Z,2.00
2022-12-23T22:09:54.521Z,2.02
2022-12-23T22:12:23.097Z,2.02
2022-12-23T22:14:51.420Z,2.04
2022-12-23T22:17:20.334Z,2.03
2022-12-23T22:19:49.142Z,2.02
2022-12-23T22:22:17.696Z,2.03
2022-12-23T22:24:49.396Z,2.00
2022-12-23T22:27:18.079Z,1.99
2022-12-23T22:29:47.062Z,1.99
2022-12-23T22:32:18.652Z,1.99
2022-12-23T22:34:47.061Z,1.98
2022-12-23T22:37:18.108Z,1.99
2022-12-23T22:39:46.984Z,2.00
2022-12-23T22:42:18.029Z,1.99
2022-12-23T22:44:46.675Z,1.99
2022-12-23T22:47:14.770Z,1.99
2022-12-23T22:49:43.729Z,1.99
2022-12-23T22:52:11.838Z,2.00
2022-12-23T22:54:43.719Z,2.00
2022-12-23T22:57:15.169Z,2.01
2022-12-23T22:59:52.771Z,2.01
2022-12-23T23:02:21.497Z,2.00
2022-12-23T23:04:50.354Z,1.98
2022-12-23T23:07:20.369Z,1.96
2022-12-23T23:09:49.231Z,1.94
2022-12-23T23:12:17.641Z,1.94
2022-12-23T23:14:55.475Z,1.95
2022-12-23T23:17:27.071Z,1.92
2022-12-23T23:19:58.658Z,1.91
2022-12-23T23:22:27.160Z,1.89
2022-12-23T23:24:58.009Z,1.91
2022-12-23T23:27:29.256Z,1.93
2022-12-23T23:30:00.473Z,1.95
2022-12-23T23:32:32.354Z,1.97
2022-12-23T23:35:05.556Z,1.99
2022-12-23T23:37:39.517Z,2.02
2022-12-23T23:40:12.828Z,2.03
2022-12-23T23:42:40.933Z,2.05
2022-12-23T23:45:14.907Z,2.06
2022-12-23T23:47:43.272Z,2.08
2022-12-23T23:50:11.707Z,2.13
2022-12-23T23:52:46.135Z,2.17
2022-12-23T23:55:14.687Z,2.21
2022-12-23T23:57:45.400Z,2.26
